createdAt,value
2018-03-26T00:02:58.197Z,28.73
2018-03-26T00:08:49.051Z,50.71
2018-03-26T00:14:40.005Z,21.12
2018-03-26T00:20:30.866Z,16.24
2018-03-26T00:26:21.740Z,19.59
2018-03-26T00:32:12.603Z,15.16
2018-03-26T00:38:03.524Z,13.7
2018-03-26T00:43:54.400Z,11.49
2018-03-26T00:49:45.378Z,11.35
2018-03-26T00:55:36.210Z,9.95
2018-03-26T01:01:27.070Z,11.71
2018-03-26T01:07:17.981Z,12.61
2018-03-26T01:13:08.846Z,12.6
2018-03-26T01:18:59.820Z,11.57
2018-03-26T01:24:50.714Z,11.79
2018-03-26T01:30:41.546Z,13.06
2018-03-26T01:36:32.558Z,12.19
2018-03-26T01:42:23.334Z,11.35
2018-03-26T01:48:14.222Z,11.44
2018-03-26T01:54:05.184Z,12.25
2018-03-26T01:59:56.007Z,13.51
2018-03-26T02:05:46.940Z,14.67
2018-03-26T02:11:37.843Z,13.91
2018-03-26T02:17:28.710Z,13.66
2018-03-26T02:23:19.611Z,14.66
2018-03-26T02:29:10.551Z,13.5
2018-03-26T02:35:01.405Z,13.05
2018-03-26T02:40:52.282Z,14.06
2018-03-26T02:46:43.247Z,15.45
2018-03-26T02:52:34.052Z,16.7
2018-03-26T02:58:24.928Z,16.29
2018-03-26T03:04:15.904Z,16.6
2018-03-26T03:10:06.752Z,15.51
2018-03-26T03:15:57.623Z,16.69
2018-03-26T03:21:48.551Z,17.74
2018-03-26T03:27:39.420Z,14.63
2018-03-26T03:33:30.302Z,13.93
2018-03-26T03:39:21.272Z,14.18
2018-03-26T03:45:12.218Z,12.72
2018-03-26T03:51:03.000Z,14
2018-03-26T03:56:53.864Z,12.91
2018-03-26T04:02:44.772Z,12.86
2018-03-26T04:08:35.654Z,13.33
2018-03-26T04:14:26.578Z,15.14
2018-03-26T04:20:17.472Z,14.73
2018-03-26T04:26:08.342Z,14.29
2018-03-26T04:31:59.233Z,15.5
2018-03-26T04:37:50.128Z,15.46
2018-03-26T04:43:40.994Z,16.6
2018-03-26T04:49:31.873Z,15.07
2018-03-26T04:55:22.835Z,10.68
2018-03-26T05:01:13.750Z,12.42
2018-03-26T05:07:04.619Z,17
2018-03-26T05:12:55.448Z,14.8
2018-03-26T05:18:46.389Z,14.2
2018-03-26T05:24:37.241Z,15.68
2018-03-26T05:30:28.138Z,57.82
2018-03-26T05:36:19.009Z,58.3
2018-03-26T05:42:09.887Z,15.54
2018-03-26T05:48:00.759Z,16.64
2018-03-26T05:53:51.683Z,30.02
2018-03-26T05:59:42.572Z,16.61
2018-03-26T06:05:33.466Z,14.02
2018-03-26T06:11:24.356Z,16.77
2018-03-26T06:17:15.217Z,17.79
2018-03-26T06:23:06.126Z,16.47
2018-03-26T06:28:57.009Z,21.3
2018-03-26T06:34:47.886Z,20.9
2018-03-26T06:40:38.751Z,20.69
2018-03-26T06:46:29.685Z,33.74
2018-03-26T06:52:20.601Z,36.72
2018-03-26T06:58:11.418Z,45.54
2018-03-26T07:04:02.398Z,39.91
2018-03-26T07:09:53.233Z,34.46
2018-03-26T07:15:44.155Z,32.41
2018-03-26T07:21:35.008Z,31.71
2018-03-26T07:27:25.900Z,26.45
2018-03-26T07:33:16.822Z,25.87
2018-03-26T07:39:07.687Z,26.63
2018-03-26T07:44:58.552Z,27.31
2018-03-26T07:50:49.472Z,27.72
2018-03-26T07:56:40.347Z,11.01
2018-03-26T08:02:31.202Z,14.04
2018-03-26T08:08:22.149Z,12.82
2018-03-26T08:14:13.011Z,11.93
2018-03-26T08:20:03.918Z,12.2
2018-03-26T08:25:54.752Z,11.39
2018-03-26T08:31:45.690Z,12.01
2018-03-26T08:37:36.561Z,11.74
2018-03-26T08:43:27.416Z,11.3
2018-03-26T08:49:18.357Z,10.25
2018-03-26T08:55:09.322Z,9.59
2018-03-26T09:01:00.125Z,9.47
2018-03-26T09:06:50.990Z,8.39
2018-03-26T09:12:41.918Z,9.47
2018-03-26T09:18:32.778Z,9.78
2018-03-26T09:24:23.657Z,9.33
2018-03-26T09:30:14.578Z,8.4
2018-03-26T09:36:05.435Z,6.43
2018-03-26T09:41:56.320Z,6.18
2018-03-26T09:47:47.264Z,6.41
2018-03-26T09:53:38.131Z,7.27
2018-03-26T09:59:28.994Z,8.17
2018-03-26T10:05:20.014Z,7.12
2018-03-26T10:11:10.796Z,8.1
2018-03-26T10:17:01.750Z,7.95
2018-03-26T10:22:52.602Z,7.56
2018-03-26T10:28:43.477Z,8.51
2018-03-26T10:34:34.372Z,8.46
2018-03-26T10:40:25.279Z,6.97
2018-03-26T10:46:16.198Z,7.05
2018-03-26T10:52:07.045Z,8.04
2018-03-26T10:57:57.910Z,7.7
2018-03-26T11:03:48.820Z,7.75
2018-03-26T11:09:39.748Z,8.29
2018-03-26T11:15:30.598Z,7.96
2018-03-26T11:21:21.525Z,8.69
2018-03-26T11:27:12.423Z,9.84
2018-03-26T11:33:03.303Z,9.59
2018-03-26T11:38:54.196Z,9.21
2018-03-26T11:44:45.078Z,8.97
2018-03-26T11:50:35.985Z,10.83
2018-03-26T11:56:26.857Z,9.13
2018-03-26T12:02:17.776Z,9.76
2018-03-26T12:08:08.674Z,8.32
2018-03-26T12:13:59.571Z,8.25
2018-03-26T12:19:50.525Z,8.88
2018-03-26T12:25:41.373Z,7.43
2018-03-26T12:31:32.252Z,7.35
2018-03-26T12:37:23.188Z,7.21
2018-03-26T12:43:14.071Z,6.64
2018-03-26T12:49:04.922Z,8.3
2018-03-26T12:54:55.836Z,8.25
2018-03-26T13:00:46.786Z,6.89
2018-03-26T13:06:37.646Z,6.44
2018-03-26T13:12:28.559Z,7.08
2018-03-26T13:18:19.448Z,8.15
2018-03-26T13:24:10.345Z,6.89
2018-03-26T13:30:01.246Z,6.49
2018-03-26T13:35:52.119Z,7.06
2018-03-26T13:41:43.016Z,7.09
2018-03-26T13:47:33.923Z,8.07
2018-03-26T13:53:24.791Z,7.71
2018-03-26T13:59:15.705Z,5.59
2018-03-26T14:05:06.592Z,8.22
2018-03-26T14:10:57.470Z,5.77
2018-03-26T14:16:48.391Z,6.56
2018-03-26T14:22:39.345Z,6.67
2018-03-26T14:28:30.199Z,7.1
2018-03-26T14:34:21.129Z,7.91
2018-03-26T14:40:12.083Z,7.7
2018-03-26T14:46:02.891Z,6.35
2018-03-26T14:51:53.810Z,8.55
2018-03-26T14:57:44.677Z,7.46
2018-03-26T15:03:35.559Z,7.39
2018-03-26T15:09:26.531Z,6.89
2018-03-26T15:15:17.411Z,9.5
2018-03-26T15:21:08.344Z,7.5
2018-03-26T15:26:59.225Z,6.79
2018-03-26T15:32:50.138Z,7.2
2018-03-26T15:38:41.021Z,8.23
2018-03-26T15:44:31.900Z,11.39
2018-03-26T15:50:22.838Z,9.01
2018-03-26T15:56:13.697Z,8.01
2018-03-26T16:02:04.578Z,7.51
2018-03-26T16:07:55.500Z,8.07
2018-03-26T16:13:46.404Z,8.06
2018-03-26T16:19:37.286Z,8.21
2018-03-26T16:25:28.203Z,8.01
2018-03-26T16:31:19.116Z,8.8
2018-03-26T16:37:09.996Z,8.52
2018-03-26T16:43:00.911Z,7.43
2018-03-26T16:48:51.785Z,9.06
2018-03-26T16:54:42.760Z,10.56
2018-03-26T17:00:33.617Z,10.44
2018-03-26T17:06:24.546Z,17.74
2018-03-26T17:12:15.408Z,14.95
2018-03-26T17:18:06.325Z,12.89
2018-03-26T17:23:57.179Z,9.56
2018-03-26T17:29:48.154Z,9.05
2018-03-26T17:35:39.052Z,9.42
2018-03-26T17:41:29.921Z,12.89
2018-03-26T17:47:20.805Z,27.9
2018-03-26T17:53:11.778Z,10.3
2018-03-26T17:59:02.612Z,10.26
2018-03-26T18:04:53.580Z,12.33
2018-03-26T18:10:44.413Z,12.21
2018-03-26T18:16:35.281Z,11.54
2018-03-26T18:22:26.206Z,18.76
2018-03-26T18:28:17.101Z,11.77
2018-03-26T18:34:08.020Z,11.26
2018-03-26T18:39:58.894Z,10.49
2018-03-26T18:45:49.828Z,10.61
2018-03-26T18:51:40.775Z,11.19
2018-03-26T18:57:31.590Z,13.19
2018-03-26T19:03:22.502Z,10.96
2018-03-26T19:09:13.416Z,10.05
2018-03-26T19:15:04.358Z,11.53
2018-03-26T19:20:55.329Z,11.08
2018-03-26T19:26:46.162Z,10.8
2018-03-26T19:32:36.996Z,11.74
2018-03-26T19:38:27.966Z,15.3
2018-03-26T19:44:18.842Z,18.74
2018-03-26T19:50:09.728Z,14.59
2018-03-26T19:56:00.678Z,20.59
2018-03-26T20:01:51.501Z,10.43
2018-03-26T20:07:42.393Z,14.06
2018-03-26T20:13:33.342Z,16.64
2018-03-26T20:19:24.240Z,19.8
2018-03-26T20:25:15.140Z,19.41
2018-03-26T20:31:06.028Z,67.91
2018-03-26T20:36:56.886Z,48.8
2018-03-26T20:42:47.813Z,20.3
2018-03-26T20:48:38.676Z,16.14
2018-03-26T20:54:29.615Z,15.13
2018-03-26T21:00:20.495Z,14.74
2018-03-26T21:06:11.391Z,17.24
2018-03-26T21:12:02.274Z,23.11
2018-03-26T21:17:53.174Z,21.34
2018-03-26T21:23:44.053Z,22.33
2018-03-26T21:29:35.003Z,22.48
2018-03-26T21:35:25.863Z,36.22
2018-03-26T21:41:16.809Z,97.7
2018-03-26T21:47:07.706Z,73.16
2018-03-26T21:52:58.592Z,86.11
2018-03-26T21:58:49.513Z,11.66
2018-03-26T22:04:40.348Z,11.69
2018-03-26T22:10:31.259Z,13.32
2018-03-26T22:16:22.153Z,14.97
2018-03-26T22:22:13.058Z,9.93
2018-03-26T22:28:03.967Z,13.84
2018-03-26T22:33:54.875Z,14.38
2018-03-26T22:39:45.806Z,15.89
2018-03-26T22:45:36.685Z,10.96
2018-03-26T22:51:27.590Z,11.9
2018-03-26T22:57:18.433Z,13.46
2018-03-26T23:03:09.364Z,12.4
2018-03-26T23:09:00.251Z,15.4
2018-03-26T23:14:51.192Z,14.93
2018-03-26T23:20:42.011Z,15.24
2018-03-26T23:26:32.961Z,14
2018-03-26T23:32:23.814Z,15.8
2018-03-26T23:38:14.757Z,15.98
2018-03-26T23:44:05.625Z,17.6
2018-03-26T23:49:56.568Z,15.23
2018-03-26T23:55:47.452Z,17.7
